createdAt,value
2018-11-22T00:01:52.493Z,18.40
2018-11-22T00:04:23.286Z,18.63
2018-11-22T00:06:53.942Z,19.40
2018-11-22T00:09:24.769Z,19.50
2018-11-22T00:11:55.585Z,19.83
2018-11-22T00:14:26.387Z,18.67
2018-11-22T00:16:57.277Z,19.00
2018-11-22T00:19:27.984Z,21.53
2018-11-22T00:21:58.736Z,20.97
2018-11-22T00:24:29.688Z,21.70
2018-11-22T00:27:00.493Z,22.10
2018-11-22T00:29:31.484Z,25.97
2018-11-22T00:32:02.300Z,26.40
2018-11-22T00:34:33.076Z,27.20
2018-11-22T00:37:03.908Z,27.47
2018-11-22T00:39:34.736Z,27.17
2018-11-22T00:42:05.594Z,26.63
2018-11-22T00:44:36.217Z,26.83
2018-11-22T00:47:07.004Z,24.40
2018-11-22T00:49:37.842Z,25.80
2018-11-22T00:52:08.682Z,25.50
2018-11-22T00:54:39.720Z,27.80
2018-11-22T00:57:10.510Z,24.30
2018-11-22T00:59:41.350Z,25.77
2018-11-22T01:02:12.218Z,24.83
2018-11-22T01:04:43.001Z,26.80
2018-11-22T01:07:13.728Z,25.17
2018-11-22T01:09:44.634Z,25.63
2018-11-22T01:12:15.567Z,28.33
2018-11-22T01:14:46.328Z,29.13
2018-11-22T01:17:17.248Z,29.27
2018-11-22T01:19:48.061Z,30.03
2018-11-22T01:22:19.013Z,34.33
2018-11-22T01:24:49.746Z,32.60
2018-11-22T01:27:20.420Z,27.83
2018-11-22T01:29:51.205Z,27.77
2018-11-22T01:32:21.949Z,33.67
2018-11-22T01:34:52.638Z,26.37
2018-11-22T01:37:23.617Z,30.93
2018-11-22T01:39:54.476Z,34.80
2018-11-22T01:42:25.253Z,30.50
2018-11-22T01:44:56.109Z,37.13
2018-11-22T01:47:26.933Z,38.03
2018-11-22T01:49:57.794Z,30.97
2018-11-22T01:52:28.664Z,34.10
2018-11-22T01:54:59.425Z,33.70
2018-11-22T01:57:30.176Z,33.97
2018-11-22T02:00:00.938Z,32.43
2018-11-22T02:02:31.610Z,34.83
2018-11-22T02:05:02.503Z,29.53
2018-11-22T02:07:33.406Z,28.20
2018-11-22T02:10:04.379Z,32.33
2018-11-22T02:12:35.172Z,28.90
2018-11-22T02:15:07.090Z,27.00
2018-11-22T02:17:37.910Z,29.53
2018-11-22T02:20:11.362Z,30.40
2018-11-22T02:22:42.594Z,30.63
2018-11-22T02:25:14.429Z,29.60
2018-11-22T02:27:45.444Z,28.20
2018-11-22T02:30:18.429Z,29.70
2018-11-22T02:32:50.582Z,26.20
2018-11-22T02:35:21.717Z,27.57
2018-11-22T02:37:52.516Z,29.27
2018-11-22T02:40:24.120Z,31.10
2018-11-22T02:42:55.816Z,29.23
2018-11-22T02:45:28.185Z,29.67
2018-11-22T02:47:59.074Z,28.90
2018-11-22T02:50:29.879Z,24.43
2018-11-22T02:53:00.772Z,27.30
2018-11-22T02:55:31.448Z,27.90
2018-11-22T02:58:02.283Z,32.60
2018-11-22T03:00:52.638Z,29.40
2018-11-22T03:03:23.409Z,26.77
2018-11-22T03:05:54.174Z,27.97
2018-11-22T03:08:24.968Z,25.40
2018-11-22T03:10:55.873Z,29.13
2018-11-22T03:13:26.718Z,28.73
2018-11-22T03:15:57.646Z,29.93
2018-11-22T03:18:28.433Z,25.40
2018-11-22T03:20:59.292Z,31.10
2018-11-22T03:23:30.171Z,32.80
2018-11-22T03:26:00.980Z,31.30
2018-11-22T03:28:31.565Z,32.73
2018-11-22T03:31:02.358Z,29.40
2018-11-22T03:33:33.057Z,30.20
2018-11-22T03:36:03.901Z,32.20
2018-11-22T03:38:34.864Z,29.47
2018-11-22T03:41:05.782Z,33.13
2018-11-22T03:43:36.612Z,31.53
2018-11-22T03:46:07.478Z,30.17
2018-11-22T03:48:38.244Z,28.90
2018-11-22T03:51:09.105Z,32.07
2018-11-22T03:53:39.913Z,31.50
2018-11-22T03:56:10.711Z,28.53
2018-11-22T03:58:41.418Z,30.60
2018-11-22T04:01:12.194Z,30.20
2018-11-22T04:03:43.114Z,30.67
2018-11-22T04:06:14.033Z,26.77
2018-11-22T04:08:44.999Z,28.53
2018-11-22T04:11:15.799Z,29.17
2018-11-22T04:13:46.849Z,27.93
2018-11-22T04:16:17.501Z,26.73
2018-11-22T04:18:48.336Z,29.23
2018-11-22T04:21:19.273Z,23.90
2018-11-22T04:23:50.210Z,26.43
2018-11-22T04:26:24.109Z,26.33
2018-11-22T04:28:52.599Z,26.50
2018-11-22T04:31:23.440Z,28.20
2018-11-22T04:33:54.224Z,27.73
2018-11-22T04:36:25.157Z,27.97
2018-11-22T04:38:56.090Z,26.03
2018-11-22T04:41:26.941Z,23.00
2018-11-22T04:43:57.817Z,24.53
2018-11-22T04:46:28.546Z,24.13
2018-11-22T04:48:59.240Z,24.37
2018-11-22T04:51:30.669Z,26.62
2018-11-22T04:54:01.693Z,22.83
2018-11-22T04:56:32.564Z,22.70
2018-11-22T04:59:03.353Z,24.67
2018-11-22T05:01:34.189Z,22.80
2018-11-22T05:04:05.015Z,21.07
2018-11-22T05:06:35.954Z,24.20
2018-11-22T05:09:08.573Z,21.80
2018-11-22T05:11:39.365Z,22.60
2018-11-22T05:14:10.156Z,22.27
2018-11-22T05:16:40.941Z,21.77
2018-11-22T05:19:11.605Z,25.20
2018-11-22T05:21:42.362Z,25.07
2018-11-22T05:24:13.340Z,25.93
2018-11-22T05:26:44.276Z,27.40
2018-11-22T05:29:15.152Z,26.77
2018-11-22T05:31:46.042Z,21.83
2018-11-22T05:34:16.930Z,25.63
2018-11-22T05:36:47.882Z,23.03
2018-11-22T05:39:18.658Z,23.67
2018-11-22T05:41:49.497Z,22.17
2018-11-22T05:44:21.369Z,23.17
2018-11-22T05:46:52.090Z,21.47
2018-11-22T05:49:22.789Z,24.00
2018-11-22T05:51:53.524Z,22.33
2018-11-22T05:54:24.515Z,21.47
2018-11-22T05:56:55.330Z,21.57
2018-11-22T05:59:26.780Z,23.07
2018-11-22T06:01:57.690Z,20.57
2018-11-22T06:04:28.544Z,21.90
2018-11-22T06:06:59.412Z,23.70
2018-11-22T06:09:30.314Z,24.30
2018-11-22T06:12:01.105Z,20.50
2018-11-22T06:14:31.952Z,22.67
2018-11-22T06:17:02.916Z,22.40
2018-11-22T06:19:33.733Z,25.03
2018-11-22T06:22:04.456Z,22.27
2018-11-22T06:24:35.330Z,23.17
2018-11-22T06:27:06.369Z,23.03
2018-11-22T06:29:37.659Z,22.23
2018-11-22T06:32:08.478Z,24.50
2018-11-22T06:34:39.241Z,25.23
2018-11-22T06:37:09.969Z,24.83
2018-11-22T06:39:40.799Z,24.40
2018-11-22T06:42:11.549Z,25.67
2018-11-22T06:44:42.353Z,26.27
2018-11-22T06:47:13.273Z,25.20
2018-11-22T06:49:44.045Z,26.60
2018-11-22T06:52:14.885Z,26.83
2018-11-22T06:54:45.809Z,28.57
2018-11-22T06:57:16.662Z,27.10
2018-11-22T06:59:47.486Z,27.90
2018-11-22T07:02:18.358Z,27.80
2018-11-22T07:04:49.327Z,24.30
2018-11-22T07:07:20.044Z,26.23
2018-11-22T07:09:50.962Z,29.70
2018-11-22T07:12:21.782Z,25.80
2018-11-22T07:14:52.624Z,26.53
2018-11-22T07:17:23.729Z,25.23
2018-11-22T07:19:54.486Z,25.83
2018-11-22T07:22:25.253Z,24.67
2018-11-22T07:24:56.115Z,26.93
2018-11-22T07:27:27.053Z,25.33
2018-11-22T07:29:57.944Z,25.77
2018-11-22T07:32:28.855Z,29.37
2018-11-22T07:34:59.601Z,28.30
2018-11-22T07:37:30.468Z,28.07
2018-11-22T07:40:01.869Z,30.37
2018-11-22T07:42:32.888Z,27.50
2018-11-22T07:45:03.686Z,28.07
2018-11-22T07:47:34.562Z,29.23
2018-11-22T07:50:05.473Z,27.10
2018-11-22T07:52:36.269Z,28.60
2018-11-22T07:55:07.928Z,27.03
2018-11-22T07:57:38.944Z,29.97
2018-11-22T08:00:18.162Z,27.97
2018-11-22T08:02:49.450Z,29.23
2018-11-22T08:05:21.229Z,26.57
2018-11-22T08:07:52.129Z,26.10
2018-11-22T08:10:23.297Z,26.17
2018-11-22T08:12:56.029Z,26.37
2018-11-22T08:15:28.682Z,27.70
2018-11-22T08:17:59.494Z,24.67
2018-11-22T08:20:30.522Z,26.03
2018-11-22T08:23:02.659Z,27.10
2018-11-22T08:25:34.163Z,26.87
2018-11-22T08:28:05.160Z,27.87
2018-11-22T08:30:35.990Z,28.80
2018-11-22T08:33:06.737Z,26.50
2018-11-22T08:35:37.493Z,27.00
2018-11-22T08:38:08.486Z,26.23
2018-11-22T08:40:39.166Z,28.10
2018-11-22T08:43:09.996Z,30.60
2018-11-22T08:45:40.786Z,26.70
2018-11-22T08:48:11.611Z,26.83
2018-11-22T08:50:42.462Z,25.53
2018-11-22T08:53:13.373Z,25.37
2018-11-22T08:55:44.182Z,26.40
2018-11-22T08:58:15.005Z,24.30
2018-11-22T09:00:45.916Z,23.90
2018-11-22T09:03:16.788Z,24.63
2018-11-22T09:05:47.501Z,24.07
2018-11-22T09:08:18.289Z,24.37
2018-11-22T09:10:48.965Z,23.37
2018-11-22T09:13:19.799Z,23.60
2018-11-22T09:15:50.512Z,25.33
2018-11-22T09:18:21.332Z,22.13
2018-11-22T09:20:52.280Z,22.00
2018-11-22T09:23:23.411Z,22.77
2018-11-22T09:25:54.249Z,22.23
2018-11-22T09:28:25.113Z,21.70
2018-11-22T09:30:56.026Z,21.70
2018-11-22T09:33:26.844Z,21.87
2018-11-22T09:35:57.694Z,22.27
2018-11-22T09:38:28.522Z,23.03
2018-11-22T09:40:59.299Z,21.23
2018-11-22T09:43:30.302Z,22.23
2018-11-22T09:46:01.055Z,20.10
2018-11-22T09:48:31.754Z,23.77
2018-11-22T09:51:02.470Z,24.03
2018-11-22T09:53:33.256Z,21.40
2018-11-22T09:56:04.173Z,23.40
2018-11-22T09:58:35.025Z,24.20
2018-11-22T10:01:06.188Z,24.07
2018-11-22T10:03:37.033Z,22.77
2018-11-22T10:06:07.782Z,23.77
2018-11-22T10:08:38.610Z,23.27
2018-11-22T10:11:09.516Z,24.03
2018-11-22T12:16:42.246Z,16.20
2018-11-22T12:19:11.783Z,17.10
2018-11-22T12:21:41.358Z,15.97
2018-11-22T12:24:10.956Z,16.43
2018-11-22T12:26:40.538Z,15.73
2018-11-22T12:29:10.075Z,15.13
2018-11-22T12:31:39.553Z,16.60
2018-11-22T12:34:14.818Z,15.43
2018-11-22T12:36:49.468Z,17.80
2018-11-22T12:39:18.963Z,18.20
2018-11-22T12:41:48.299Z,15.83
2018-11-22T12:44:17.914Z,15.87
2018-11-22T12:46:47.534Z,15.43
2018-11-22T12:49:17.074Z,13.80
2018-11-22T12:51:46.537Z,14.53
2018-11-22T12:54:16.253Z,12.60
2018-11-22T12:56:45.783Z,12.83
2018-11-22T12:59:15.213Z,13.53
2018-11-22T13:01:44.886Z,13.77
2018-11-22T13:04:14.326Z,13.77
2018-11-22T13:06:43.803Z,12.63
2018-11-22T13:09:13.291Z,13.07
2018-11-22T13:11:47.615Z,13.43
2018-11-22T13:14:12.690Z,11.23
2018-11-22T13:16:42.260Z,11.87
2018-11-22T13:19:11.909Z,14.63
2018-11-22T13:21:41.438Z,20.33
2018-11-22T13:24:10.975Z,13.20
2018-11-22T13:26:40.621Z,16.27
2018-11-22T13:29:10.074Z,13.67
2018-11-22T13:31:39.566Z,14.73
2018-11-22T13:34:09.064Z,12.97
2018-11-22T13:36:38.639Z,13.57
2018-11-22T13:39:10.835Z,13.13
2018-11-22T13:41:40.419Z,13.50
2018-11-22T13:44:09.943Z,12.67
2018-11-22T13:46:39.331Z,11.33
2018-11-22T13:49:08.822Z,14.77
2018-11-22T13:51:38.323Z,11.67
2018-11-22T13:54:07.937Z,10.73
2018-11-22T13:56:37.451Z,10.50
2018-11-22T13:59:06.961Z,8.40
2018-11-22T14:01:36.486Z,9.03
2018-11-22T14:04:06.350Z,6.70
2018-11-22T14:06:35.868Z,7.80
2018-11-22T14:09:07.120Z,9.33
2018-11-22T14:11:36.716Z,9.63
2018-11-22T14:14:06.670Z,10.00
2018-11-22T14:16:36.095Z,9.03
2018-11-22T14:19:05.543Z,9.90
2018-11-22T14:21:35.040Z,11.23
2018-11-22T14:24:04.490Z,10.60
2018-11-22T14:26:33.964Z,11.13
2018-11-22T14:29:03.461Z,11.73
2018-11-22T14:31:32.996Z,12.50
2018-11-22T14:34:02.414Z,12.77
2018-11-22T14:36:32.029Z,14.50
2018-11-22T14:39:01.694Z,13.47
2018-11-22T14:41:31.215Z,13.43
2018-11-22T14:44:00.712Z,14.27
2018-11-22T14:46:30.191Z,15.93
2018-11-22T14:48:59.752Z,14.37
2018-11-22T14:51:32.980Z,13.70
2018-11-22T14:54:02.515Z,15.00
2018-11-22T14:56:31.882Z,15.60
2018-11-22T14:59:01.291Z,16.77
2018-11-22T15:01:30.759Z,16.30
2018-11-22T15:04:01.809Z,16.67
2018-11-22T15:06:41.370Z,16.30
2018-11-22T15:09:11.722Z,13.13
2018-11-22T15:11:41.463Z,12.93
2018-11-22T15:14:11.038Z,12.93
2018-11-22T15:16:40.644Z,11.73
2018-11-22T15:19:10.154Z,13.77
2018-11-22T15:21:39.743Z,14.10
2018-11-22T15:24:09.267Z,14.43
2018-11-22T15:26:38.678Z,14.97
2018-11-22T15:29:08.370Z,13.83
2018-11-22T15:31:38.508Z,14.20
2018-11-22T15:34:09.129Z,14.60
2018-11-22T15:36:39.139Z,13.00
2018-11-22T15:39:11.553Z,14.00
2018-11-22T15:41:41.703Z,13.97
2018-11-22T15:44:11.163Z,19.10
2018-11-22T15:46:40.570Z,23.60
2018-11-22T15:49:09.981Z,22.00
2018-11-22T15:51:39.740Z,32.03
2018-11-22T15:54:09.275Z,17.30
2018-11-22T15:56:38.659Z,19.10
2018-11-22T15:59:08.303Z,15.23
2018-11-22T16:01:38.180Z,12.80
2018-11-22T16:04:07.759Z,16.40
2018-11-22T16:06:37.482Z,12.90
2018-11-22T16:09:09.346Z,12.67
2018-11-22T16:11:38.941Z,13.97
2018-11-22T16:14:08.497Z,14.73
2018-11-22T16:16:37.915Z,14.97
2018-11-22T16:19:07.896Z,12.90
2018-11-22T16:21:37.491Z,12.77
2018-11-22T16:24:07.091Z,11.93
2018-11-22T16:26:36.806Z,12.73
2018-11-22T16:29:06.463Z,12.97
2018-11-22T16:31:36.034Z,14.53
2018-11-22T16:34:05.758Z,13.97
2018-11-22T16:36:35.519Z,13.23
2018-11-22T16:39:06.369Z,13.87
2018-11-22T16:41:35.869Z,12.93
2018-11-22T16:44:05.626Z,13.17
2018-11-22T16:46:35.089Z,14.90
2018-11-22T16:49:04.838Z,15.90
2018-11-22T16:51:34.370Z,18.70
2018-11-22T16:54:04.035Z,18.53
2018-11-22T16:56:33.613Z,16.93
2018-11-22T16:59:03.048Z,17.37
2018-11-22T17:01:32.431Z,22.73
2018-11-22T17:04:02.234Z,19.57
2018-11-22T17:06:31.742Z,20.10
2018-11-22T17:09:01.266Z,18.57
2018-11-22T17:11:33.301Z,17.60
2018-11-22T17:14:00.463Z,19.50
2018-11-22T17:16:29.967Z,18.00
2018-11-22T17:18:59.405Z,16.70
2018-11-22T17:21:29.096Z,16.83
2018-11-22T17:23:58.587Z,18.47
2018-11-22T17:26:28.095Z,18.90
2018-11-22T17:28:57.685Z,15.87
2018-11-22T17:31:27.274Z,17.47
2018-11-22T17:33:56.924Z,19.33
2018-11-22T17:36:26.346Z,19.60
2018-11-22T17:38:55.887Z,19.57
2018-11-22T17:41:25.436Z,28.40
2018-11-22T17:43:55.136Z,19.37
2018-11-22T17:46:24.942Z,23.63
2018-11-22T17:48:54.475Z,23.57
2018-11-22T17:51:23.942Z,22.20
2018-11-22T17:53:53.545Z,22.40
2018-11-22T17:56:22.841Z,22.23
2018-11-22T17:58:52.414Z,24.60
2018-11-22T18:01:21.898Z,27.17
2018-11-22T18:03:51.434Z,27.40
2018-11-22T18:06:20.946Z,24.63
2018-11-22T18:08:50.500Z,29.70
2018-11-22T18:11:20.019Z,26.03
2018-11-22T18:13:50.006Z,25.90
2018-11-22T18:16:19.516Z,22.10
2018-11-22T18:18:49.007Z,19.63
2018-11-22T18:21:18.596Z,18.00
2018-11-22T18:23:48.042Z,19.30
2018-11-22T18:26:17.532Z,20.60
2018-11-22T18:28:46.990Z,19.10
2018-11-22T18:31:16.642Z,20.70
2018-11-22T18:33:46.129Z,22.93
2018-11-22T18:36:15.660Z,19.67
2018-11-22T18:38:45.181Z,20.67
2018-11-22T18:41:14.627Z,20.37
2018-11-22T18:43:45.662Z,23.47
2018-11-22T18:46:15.209Z,20.50
2018-11-22T18:48:46.618Z,22.50
2018-11-22T18:51:16.064Z,24.50
2018-11-22T18:53:45.467Z,23.17
2018-11-22T18:56:14.854Z,22.77
2018-11-22T18:58:44.299Z,26.13
2018-11-22T19:01:13.960Z,27.07
2018-11-22T19:03:43.398Z,25.80
2018-11-22T19:06:13.612Z,23.67
2018-11-22T19:08:43.211Z,24.57
2018-11-22T19:11:12.902Z,26.47
2018-11-22T19:13:42.486Z,25.50
2018-11-22T19:16:12.142Z,80.83
2018-11-22T19:18:41.662Z,119.80
2018-11-22T19:21:11.217Z,82.83
2018-11-22T19:23:40.631Z,30.20
2018-11-22T19:26:11.238Z,27.10
2018-11-22T19:28:40.798Z,25.73
2018-11-22T19:31:10.944Z,26.83
2018-11-22T19:33:40.411Z,29.87
2018-11-22T19:36:09.823Z,28.73
2018-11-22T19:38:39.438Z,37.33
2018-11-22T19:41:09.000Z,46.40
2018-11-22T19:43:38.436Z,38.20
2018-11-22T19:46:07.911Z,50.17
2018-11-22T19:48:37.424Z,47.37
2018-11-22T19:51:06.899Z,34.37
2018-11-22T19:53:36.530Z,35.77
2018-11-22T19:56:06.369Z,85.17
2018-11-22T19:58:35.916Z,70.10
2018-11-22T20:01:07.752Z,47.17
2018-11-22T20:03:34.896Z,58.63
2018-11-22T20:06:04.535Z,72.43
2018-11-22T20:08:34.062Z,76.83
2018-11-22T20:11:03.689Z,60.20
2018-11-22T20:13:34.094Z,73.87
2018-11-22T20:16:03.683Z,70.57
2018-11-22T20:18:34.623Z,75.80
2018-11-22T20:21:04.246Z,63.20
2018-11-22T20:23:33.629Z,62.23
2018-11-22T20:26:03.048Z,65.47
2018-11-22T20:28:32.527Z,63.80
2018-11-22T20:31:02.041Z,71.27
2018-11-22T20:33:31.567Z,64.57
2018-11-22T20:36:01.093Z,40.60
2018-11-22T20:38:30.662Z,38.63
2018-11-22T20:41:00.206Z,44.03
2018-11-22T20:43:29.894Z,51.77
2018-11-22T20:45:59.372Z,61.17
2018-11-22T20:48:29.002Z,56.07
2018-11-22T20:50:59.087Z,54.03
2018-11-22T20:53:28.695Z,46.67
2018-11-22T20:55:58.285Z,44.93
2018-11-22T20:58:28.585Z,44.67
2018-11-22T21:00:57.960Z,44.73
2018-11-22T21:03:27.778Z,38.77
2018-11-22T21:05:57.985Z,37.07
2018-11-22T21:08:27.479Z,43.47
2018-11-22T21:10:57.069Z,42.93
2018-11-22T21:13:27.603Z,42.53
2018-11-22T21:15:57.125Z,39.10
2018-11-22T21:18:26.634Z,35.63
2018-11-22T21:20:56.124Z,37.87
2018-11-22T21:23:25.614Z,40.30
2018-11-22T21:25:55.542Z,38.33
2018-11-22T21:28:25.248Z,39.07
2018-11-22T21:30:54.775Z,44.63
2018-11-22T21:33:24.450Z,35.47
2018-11-22T21:35:53.966Z,30.77
2018-11-22T21:38:23.487Z,31.00
2018-11-22T21:40:52.984Z,31.40
2018-11-22T21:43:22.574Z,30.93
2018-11-22T21:45:52.011Z,30.10
2018-11-22T21:48:21.517Z,30.30
2018-11-22T21:50:51.140Z,27.17
2018-11-22T21:53:20.590Z,30.00
2018-11-22T21:55:50.127Z,29.97
2018-11-22T21:58:19.659Z,32.57
2018-11-22T22:00:49.227Z,31.13
2018-11-22T22:03:18.754Z,31.77
2018-11-22T22:05:49.105Z,30.50
2018-11-22T22:08:18.566Z,32.13
2018-11-22T22:10:47.988Z,31.27
2018-11-22T22:13:17.371Z,30.80
2018-11-22T22:15:46.803Z,32.43
2018-11-22T22:18:21.187Z,32.23
2018-11-22T22:20:45.973Z,32.47
2018-11-22T22:23:15.494Z,37.07
2018-11-22T22:25:44.977Z,39.87
2018-11-22T22:28:14.479Z,42.80
2018-11-22T22:30:43.891Z,37.43
2018-11-22T22:33:13.679Z,33.00
2018-11-22T22:35:43.303Z,34.97
2018-11-22T22:38:12.720Z,38.60
2018-11-22T22:40:42.128Z,35.63
2018-11-22T22:43:11.896Z,34.33
2018-11-22T22:45:41.454Z,31.23
2018-11-22T22:48:10.931Z,35.60
2018-11-22T22:50:40.337Z,38.57
2018-11-22T22:53:10.358Z,35.17
2018-11-22T22:55:39.859Z,35.33
2018-11-22T22:58:09.447Z,33.83
2018-11-22T23:00:45.091Z,36.47
2018-11-22T23:03:14.658Z,36.90
2018-11-22T23:05:44.291Z,32.47
2018-11-22T23:08:13.819Z,33.73
2018-11-22T23:10:43.353Z,38.93
2018-11-22T23:13:13.189Z,34.40
2018-11-22T23:15:42.755Z,40.63
2018-11-22T23:18:12.158Z,33.30
2018-11-22T23:20:41.566Z,32.47
2018-11-22T23:23:11.057Z,38.50
2018-11-22T23:25:40.551Z,39.90
2018-11-22T23:28:09.973Z,35.60
2018-11-22T23:30:39.367Z,32.57
2018-11-22T23:33:09.447Z,31.67
2018-11-22T23:35:38.859Z,32.03
2018-11-22T23:38:08.294Z,32.50
2018-11-22T23:40:37.734Z,29.13
2018-11-22T23:43:07.274Z,34.07
2018-11-22T23:45:36.819Z,33.63
2018-11-22T23:48:06.208Z,34.13
2018-11-22T23:50:35.650Z,32.00
2018-11-22T23:53:05.611Z,34.40
2018-11-22T23:55:35.243Z,33.57
2018-11-22T23:58:04.674Z,31.77
